Time;durP1;ratioP1;P1;durP2;ratioP2;P2;SDS_P1;SDS_P2;PMS_P1;PMS_P2;Temp;Humidity;BMP_temperature;BMP_pressure;BME280_temperature;BME280_humidity;BME280_pressure;Samples;Min_cycle;Max_cycle;Signal;HPM_P1;HPM_P2
2021/04/29 00:00:31;;;;;;;8.65;3.83;;;7.60;99.90;;;;;;5057958;28;20049;-83
2021/04/29 00:02:57;;;;;;;5.60;3.90;;;7.60;99.90;;;;;;5057313;28;20073;-84
2021/04/29 00:05:27;;;;;;;6.57;3.78;;;7.50;99.90;;;;;;5060912;28;20527;-82
2021/04/29 00:07:55;;;;;;;6.70;3.67;;;7.50;99.90;;;;;;5061097;28;20053;-83
2021/04/29 00:10:25;;;;;;;6.78;4.13;;;7.50;99.90;;;;;;5060834;28;20412;-84
2021/04/29 00:12:51;;;;;;;7.45;3.85;;;7.50;99.90;;;;;;5061300;28;20060;-84
2021/04/29 00:15:17;;;;;;;8.23;4.20;;;7.50;99.90;;;;;;5062584;28;20041;-83
2021/04/29 00:17:44;;;;;;;9.30;4.60;;;7.40;99.90;;;;;;5062118;28;20045;-84
2021/04/29 00:20:14;;;;;;;8.52;4.53;;;7.40;99.90;;;;;;5062136;28;20051;-84
2021/04/29 00:22:41;;;;;;;4.47;3.78;;;7.50;99.90;;;;;;5060955;28;20084;-83
2021/04/29 00:25:08;;;;;;;5.72;3.65;;;7.50;99.90;;;;;;5062201;28;20056;-84
2021/04/29 00:27:35;;;;;;;6.60;4.05;;;7.60;99.90;;;;;;5065328;28;20088;-84
2021/04/29 00:30:02;;;;;;;9.20;4.00;;;7.70;99.90;;;;;;5060830;28;20127;-84
2021/04/29 00:32:28;;;;;;;4.55;3.50;;;7.70;99.90;;;;;;5060689;28;20049;-84
2021/04/29 00:34:54;;;;;;;4.88;3.72;;;7.70;99.90;;;;;;5060423;28;20096;-84
2021/04/29 00:37:21;;;;;;;7.55;3.95;;;7.80;99.90;;;;;;5060153;28;20103;-83
2021/04/29 00:39:47;;;;;;;3.90;3.53;;;7.80;99.90;;;;;;5059909;28;20044;-84
2021/04/29 00:42:14;;;;;;;6.82;3.35;;;7.90;99.90;;;;;;5054756;28;20144;-83
2021/04/29 00:44:40;;;;;;;7.10;3.10;;;8.00;99.90;;;;;;5054566;28;20069;-83
2021/04/29 00:47:07;;;;;;;4.28;3.40;;;8.10;99.90;;;;;;5055832;28;20063;-83
2021/04/29 00:49:35;;;;;;;8.23;3.40;;;8.00;99.90;;;;;;5054625;28;20060;-83
2021/04/29 00:52:01;;;;;;;4.53;3.53;;;8.00;99.90;;;;;;5057190;28;20068;-82
2021/04/29 00:54:29;;;;;;;4.25;3.30;;;8.00;99.90;;;;;;5059729;28;20055;-83
2021/04/29 00:56:55;;;;;;;6.72;3.40;;;8.00;99.90;;;;;;5060148;28;20098;-84
2021/04/29 00:59:22;;;;;;;5.38;4.03;;;8.00;99.90;;;;;;5060798;28;20049;-83
2021/04/29 01:01:55;;;;;;;4.18;3.78;;;8.10;99.90;;;;;;5060589;28;20080;-84
2021/04/29 01:04:28;;;;;;;8.45;3.65;;;8.10;99.90;;;;;;5061412;28;20474;-84
2021/04/29 01:07:00;;;;;;;4.30;3.60;;;8.20;99.90;;;;;;5060179;28;20084;-84
2021/04/29 01:09:40;;;;;;;8.10;3.47;;;8.30;99.90;;;;;;5059344;28;20291;-84
2021/04/29 01:12:16;;;;;;;3.70;3.30;;;8.40;99.90;;;;;;5059425;28;20098;-84
2021/04/29 01:14:43;;;;;;;4.78;3.88;;;8.50;99.90;;;;;;5060595;28;20067;-84
2021/04/29 01:17:11;;;;;;;5.65;3.72;;;8.40;99.90;;;;;;5058514;28;20100;-84
2021/04/29 01:19:50;;;;;;;8.00;3.47;;;8.30;99.90;;;;;;5059699;28;20492;-83
2021/04/29 01:22:17;;;;;;;7.53;3.50;;;8.20;99.90;;;;;;5061215;28;20069;-84
2021/04/29 01:25:05;;;;;;;4.60;3.50;;;8.00;99.90;;;;;;5059792;28;20049;-84
2021/04/29 01:27:33;;;;;;;6.50;3.83;;;7.90;99.90;;;;;;5059194;28;20071;-84
2021/04/29 01:30:02;;;;;;;5.55;4.20;;;7.70;99.90;;;;;;5059859;28;20045;-85
2021/04/29 01:32:28;;;;;;;5.85;4.70;;;7.60;99.90;;;;;;5061672;28;20049;-85
2021/04/29 01:34:55;;;;;;;5.20;4.47;;;7.50;99.90;;;;;;5063357;28;20523;-86
2021/04/29 01:37:22;;;;;;;5.47;4.38;;;7.40;99.90;;;;;;5060651;28;20482;-87
2021/04/29 01:39:48;;;;;;;7.53;5.07;;;7.40;99.90;;;;;;5060378;28;20113;-88
2021/04/29 01:42:15;;;;;;;7.18;5.63;;;7.30;99.90;;;;;;5059867;28;20057;-88
2021/04/29 01:44:41;;;;;;;9.77;5.68;;;7.30;99.90;;;;;;5058050;28;20107;-86
2021/04/29 01:47:08;;;;;;;10.55;5.75;;;7.20;99.90;;;;;;5058711;28;20049;-88
2021/04/29 01:49:35;;;;;;;7.93;6.22;;;7.20;99.90;;;;;;5055976;28;20049;-88
2021/04/29 01:52:04;;;;;;;6.68;5.63;;;7.20;99.90;;;;;;5054529;28;20045;-87
2021/04/29 01:54:37;;;;;;;6.93;6.10;;;7.10;99.90;;;;;;5055459;28;20049;-88
2021/04/29 01:57:22;;;;;;;10.55;5.93;;;7.10;99.90;;;;;;5055759;28;20102;-87
2021/04/29 01:59:51;;;;;;;10.35;6.60;;;7.10;99.90;;;;;;5054456;28;20045;-87
2021/04/29 02:02:18;;;;;;;7.57;6.60;;;7.00;99.90;;;;;;5053979;28;20083;-87
2021/04/29 02:04:45;;;;;;;8.35;6.28;;;7.00;99.90;;;;;;5055763;28;20044;-87
2021/04/29 02:07:11;;;;;;;9.63;6.25;;;7.00;99.90;;;;;;5055725;28;20049;-87
2021/04/29 02:09:39;;;;;;;8.48;6.90;;;6.90;99.90;;;;;;5056994;28;20080;-87
2021/04/29 02:12:07;;;;;;;9.00;6.88;;;6.90;99.90;;;;;;5055997;28;20041;-86
2021/04/29 02:14:46;;;;;;;8.98;7.18;;;6.90;99.90;;;;;;5057524;28;20049;-87
2021/04/29 02:17:26;;;;;;;11.48;7.80;;;6.90;99.90;;;;;;5057658;28;20048;-86
2021/04/29 02:19:55;;;;;;;10.48;7.68;;;6.80;99.90;;;;;;5058377;28;20076;-86
2021/04/29 02:22:24;;;;;;;11.98;7.43;;;6.80;99.90;;;;;;5058148;28;20049;-87
2021/04/29 02:24:53;;;;;;;8.82;7.63;;;6.80;99.90;;;;;;5058089;28;20073;-87
2021/04/29 02:27:20;;;;;;;13.55;8.50;;;6.80;99.90;;;;;;5055702;28;20045;-86
2021/04/29 02:29:47;;;;;;;10.77;8.45;;;6.80;99.90;;;;;;5054033;28;20465;-87
2021/04/29 02:32:17;;;;;;;15.32;9.40;;;6.80;99.90;;;;;;5053569;28;20122;-86
2021/04/29 02:34:46;;;;;;;12.82;9.35;;;6.80;99.90;;;;;;5052993;28;20071;-86
2021/04/29 02:37:13;;;;;;;10.30;9.20;;;6.90;99.90;;;;;;5053196;28;20596;-86
2021/04/29 02:39:40;;;;;;;10.52;9.38;;;6.90;99.90;;;;;;5055572;28;20061;-87
2021/04/29 02:42:08;;;;;;;10.70;9.50;;;6.90;99.90;;;;;;5057009;28;20053;-87
2021/04/29 02:44:35;;;;;;;11.93;9.70;;;6.90;99.90;;;;;;5056905;28;20057;-86
2021/04/29 02:47:02;;;;;;;10.68;8.90;;;7.00;99.90;;;;;;5056179;28;20067;-87
2021/04/29 02:49:28;;;;;;;14.68;10.10;;;7.00;99.90;;;;;;5056524;28;20053;-87
2021/04/29 02:51:55;;;;;;;14.73;10.27;;;7.00;99.90;;;;;;5057290;28;20048;-86
2021/04/29 02:54:22;;;;;;;13.45;10.00;;;7.10;99.90;;;;;;5056873;28;20068;-86
2021/04/29 02:56:49;;;;;;;11.07;9.70;;;7.00;99.90;;;;;;5052670;28;20098;-86
2021/04/29 02:59:15;;;;;;;16.33;10.13;;;7.00;99.90;;;;;;5052612;28;20084;-86
2021/04/29 03:01:42;;;;;;;17.27;10.15;;;7.00;99.90;;;;;;5053877;28;20052;-86
2021/04/29 03:04:09;;;;;;;14.07;10.32;;;7.00;99.90;;;;;;5056570;28;20470;-87
2021/04/29 03:06:36;;;;;;;17.35;11.00;;;7.00;99.90;;;;;;5060272;28;20091;-87
2021/04/29 03:09:05;;;;;;;9.93;8.93;;;7.00;99.90;;;;;;5059453;28;20083;-87
2021/04/29 03:11:35;;;;;;;15.90;11.18;;;7.00;99.90;;;;;;5053990;28;20495;-87
2021/04/29 03:14:01;;;;;;;16.17;10.73;;;6.90;99.90;;;;;;5054218;28;20049;-87
2021/04/29 03:16:28;;;;;;;14.52;10.45;;;6.90;99.90;;;;;;5055670;28;20516;-87
2021/04/29 03:18:55;;;;;;;12.43;11.18;;;6.90;99.90;;;;;;5055854;28;20111;-87
2021/04/29 03:21:21;;;;;;;12.90;11.23;;;6.80;99.90;;;;;;5053225;28;20140;-87
2021/04/29 03:23:48;;;;;;;15.27;11.07;;;6.80;99.90;;;;;;5053238;28;20076;-87
2021/04/29 03:26:14;;;;;;;13.27;11.88;;;6.80;99.90;;;;;;5053044;28;20122;-87
2021/04/29 03:28:40;;;;;;;11.68;10.48;;;6.90;99.90;;;;;;5054393;28;20496;-87
2021/04/29 03:31:07;;;;;;;15.10;11.70;;;6.80;99.90;;;;;;5053711;28;20081;-87
2021/04/29 03:33:33;;;;;;;16.77;11.98;;;6.80;99.90;;;;;;5055174;28;20148;-87
2021/04/29 03:35:59;;;;;;;13.77;12.20;;;6.80;99.90;;;;;;5055127;28;20432;-87
2021/04/29 03:38:26;;;;;;;18.60;14.15;;;6.70;99.90;;;;;;5054363;28;20499;-87
2021/04/29 03:40:52;;;;;;;15.82;12.52;;;6.70;99.90;;;;;;5059276;28;20485;-87
2021/04/29 03:43:18;;;;;;;17.23;12.20;;;6.70;99.90;;;;;;5059039;28;20053;-87
2021/04/29 03:45:44;;;;;;;15.43;12.38;;;6.70;99.90;;;;;;5058967;28;20049;-87
2021/04/29 03:48:11;;;;;;;15.73;12.32;;;6.80;99.90;;;;;;5058586;28;20049;-87
2021/04/29 03:50:37;;;;;;;23.77;15.68;;;6.80;99.90;;;;;;5059371;28;20454;-88
2021/04/29 03:53:03;;;;;;;17.83;14.63;;;6.80;99.90;;;;;;5058614;28;20088;-87
2021/04/29 03:55:30;;;;;;;18.70;14.80;;;6.90;99.90;;;;;;5059518;28;20045;-87
2021/04/29 03:57:56;;;;;;;27.13;17.23;;;7.00;99.90;;;;;;5060157;28;20052;-88
2021/04/29 04:00:23;;;;;;;19.55;16.80;;;7.10;99.90;;;;;;5059015;28;20110;-88
2021/04/29 04:02:49;;;;;;;20.70;17.17;;;7.20;99.90;;;;;;5059030;28;20051;-88
2021/04/29 04:05:16;;;;;;;21.27;16.40;;;7.20;99.90;;;;;;5060524;28;20106;-88
2021/04/29 04:07:43;;;;;;;25.05;19.00;;;7.30;99.90;;;;;;5062106;28;20052;-88
2021/04/29 04:10:10;;;;;;;21.33;16.27;;;7.40;99.90;;;;;;5061073;28;20416;-88
2021/04/29 04:12:36;;;;;;;19.13;16.45;;;7.40;99.90;;;;;;5060372;28;20624;-88
2021/04/29 04:15:04;;;;;;;18.73;15.60;;;7.50;99.90;;;;;;5060064;28;20083;-88
2021/04/29 04:17:30;;;;;;;15.43;13.93;;;7.60;99.90;;;;;;5060392;28;20049;-88
2021/04/29 04:20:17;;;;;;;23.00;14.18;;;7.70;99.90;;;;;;5059469;28;20045;-87
2021/04/29 04:22:44;;;;;;;18.95;15.20;;;7.70;99.90;;;;;;5060578;28;20045;-88
2021/04/29 04:25:10;;;;;;;23.33;14.85;;;7.70;99.90;;;;;;5059770;28;20385;-88
2021/04/29 04:27:37;;;;;;;16.40;13.55;;;7.70;99.90;;;;;;5061370;28;20045;-88
2021/04/29 04:30:05;;;;;;;19.98;15.02;;;7.70;99.90;;;;;;5061155;28;20053;-88
2021/04/29 04:32:31;;;;;;;14.80;13.30;;;7.70;99.90;;;;;;5056828;28;20041;-88
2021/04/29 04:34:59;;;;;;;18.83;13.77;;;7.80;99.90;;;;;;5057971;28;20480;-87
2021/04/29 04:37:26;;;;;;;21.17;14.70;;;7.90;99.90;;;;;;5056745;28;20393;-88
2021/04/29 04:39:52;;;;;;;24.80;15.10;;;8.00;99.90;;;;;;5056995;28;20071;-87
2021/04/29 04:42:19;;;;;;;19.58;12.68;;;8.00;99.90;;;;;;5057353;28;20053;-88
2021/04/29 04:44:45;;;;;;;18.20;13.88;;;8.10;99.90;;;;;;5059879;28;20186;-88
2021/04/29 04:47:12;;;;;;;16.73;12.85;;;8.10;99.90;;;;;;5060772;28;20131;-88
2021/04/29 04:49:38;;;;;;;14.52;12.93;;;8.20;99.90;;;;;;5061086;28;20056;-89
2021/04/29 04:52:05;;;;;;;19.25;12.63;;;8.20;99.90;;;;;;5058932;28;20049;-87
2021/04/29 04:54:33;;;;;;;17.30;13.88;;;8.20;99.90;;;;;;5059173;28;20053;-88
2021/04/29 04:57:00;;;;;;;14.55;12.13;;;8.30;99.90;;;;;;5061311;28;20455;-87
2021/04/29 04:59:27;;;;;;;13.77;12.40;;;8.30;99.90;;;;;;5057595;28;20071;-88
2021/04/29 05:01:54;;;;;;;14.48;12.48;;;8.40;99.90;;;;;;5057696;28;20099;-88
2021/04/29 05:04:27;;;;;;;17.20;11.55;;;8.50;99.90;;;;;;5057441;28;20056;-87
2021/04/29 05:06:57;;;;;;;19.15;12.10;;;8.60;99.90;;;;;;5057012;28;20076;-87
2021/04/29 05:09:24;;;;;;;14.18;10.77;;;8.60;99.90;;;;;;5056849;28;20052;-88
2021/04/29 05:11:50;;;;;;;16.65;11.35;;;8.70;99.90;;;;;;5056680;28;20194;-88
2021/04/29 05:14:16;;;;;;;18.77;12.32;;;8.70;99.90;;;;;;5056597;28;20045;-87
2021/04/29 05:16:43;;;;;;;18.13;10.90;;;8.80;99.90;;;;;;5057400;28;20056;-87
2021/04/29 05:19:11;;;;;;;20.02;11.73;;;8.90;99.90;;;;;;5058460;28;20041;-88
2021/04/29 05:21:38;;;;;;;18.25;12.32;;;9.00;99.90;;;;;;5058025;28;20049;-88
2021/04/29 05:24:51;;;;;;;17.85;13.50;;;9.20;99.90;;;;;;5057338;28;20049;-86
2021/04/29 05:27:21;;;;;;;13.63;12.20;;;9.30;99.90;;;;;;5057694;28;20049;-88
2021/04/29 05:29:48;;;;;;;14.73;13.20;;;9.40;99.90;;;;;;5056397;28;20128;-87
2021/04/29 05:32:16;;;;;;;14.07;12.57;;;9.20;99.90;;;;;;5054841;28;20115;-87
2021/04/29 05:34:44;;;;;;;14.85;12.00;;;9.40;99.90;;;;;;5054598;28;20080;-87
2021/04/29 05:37:20;;;;;;;19.55;12.73;;;9.40;99.90;;;;;;5056553;28;20102;-86
2021/04/29 05:39:46;;;;;;;16.90;13.00;;;9.40;99.90;;;;;;5057320;28;20567;-88
2021/04/29 05:42:13;;;;;;;17.67;14.40;;;9.40;99.90;;;;;;5055490;28;20136;-87
2021/04/29 05:44:44;;;;;;;19.48;15.23;;;9.50;99.90;;;;;;5063279;28;20478;-88
2021/04/29 05:47:11;;;;;;;14.88;13.43;;;9.60;99.90;;;;;;5066695;28;20045;-88
2021/04/29 05:50:04;;;;;;;15.32;13.18;;;9.70;99.90;;;;;;5059744;28;20068;-88
2021/04/29 05:53:06;;;;;;;16.08;12.63;;;9.80;99.90;;;;;;5056374;28;20124;-88
2021/04/29 05:56:19;;;;;;;16.45;12.98;;;9.90;99.90;;;;;;5054769;28;20100;-88
2021/04/29 05:59:30;;;;;;;14.88;12.75;;;10.10;99.90;;;;;;5048141;28;20419;-87
2021/04/29 06:02:25;;;;;;;19.27;15.63;;;10.20;99.90;;;;;;5055318;28;20459;-87
2021/04/29 06:09:02;;;;;;;24.13;17.67;;;10.70;99.90;;;;;;5047889;28;20403;-87
2021/04/29 06:12:04;;;;;;;11.38;9.82;;;11.00;99.90;;;;;;5053118;28;20136;-87
2021/04/29 06:14:43;;;;;;;16.75;10.18;;;11.00;99.90;;;;;;5053111;28;20562;-87
2021/04/29 06:17:12;;;;;;;16.42;12.30;;;11.50;99.90;;;;;;5054731;28;20048;-87
2021/04/29 06:19:39;;;;;;;6.93;6.32;;;12.30;99.90;;;;;;5054660;28;20056;-87
2021/04/29 06:22:06;;;;;;;7.72;6.93;;;13.10;99.90;;;;;;5058026;28;20049;-86
2021/04/29 06:24:32;;;;;;;9.35;6.47;;;13.20;99.90;;;;;;5060159;28;20061;-87
2021/04/29 06:26:58;;;;;;;7.72;5.75;;;12.90;99.90;;;;;;5056625;28;20055;-86
2021/04/29 06:29:26;;;;;;;7.22;5.72;;;12.80;99.90;;;;;;5057739;28;20401;-86
2021/04/29 06:31:52;;;;;;;5.50;4.85;;;13.00;99.90;;;;;;5055855;28;20041;-87
2021/04/29 06:34:19;;;;;;;18.88;5.47;;;13.40;99.90;;;;;;5057434;28;20444;-86
2021/04/29 06:36:45;;;;;;;4.93;4.53;;;13.70;99.90;;;;;;5059927;28;20128;-86
2021/04/29 06:39:12;;;;;;;6.15;5.63;;;13.30;99.90;;;;;;5058536;28;20049;-87
2021/04/29 06:41:39;;;;;;;4.75;4.30;;;13.00;99.90;;;;;;5058354;28;20055;-86
2021/04/29 06:44:06;;;;;;;4.45;4.15;;;12.70;99.90;;;;;;5057656;28;20049;-87
2021/04/29 06:46:32;;;;;;;5.00;4.60;;;12.20;99.90;;;;;;5057503;28;20053;-85
2021/04/29 06:48:58;;;;;;;8.85;5.05;;;12.00;99.90;;;;;;5056840;28;20049;-86
2021/04/29 06:51:25;;;;;;;5.03;4.53;;;11.80;99.90;;;;;;5057173;28;20071;-86
2021/04/29 06:54:04;;;;;;;4.00;3.70;;;11.70;99.90;;;;;;5056858;28;20071;-86
2021/04/29 06:56:30;;;;;;;3.90;3.60;;;11.80;99.90;;;;;;5056786;28;20064;-86
2021/04/29 06:59:00;;;;;;;3.67;3.40;;;11.90;99.90;;;;;;5057674;28;20041;-86
2021/04/29 07:01:26;;;;;;;3.42;3.17;;;12.10;99.90;;;;;;5057451;28;20048;-86
2021/04/29 07:03:54;;;;;;;4.80;3.13;;;12.40;99.90;;;;;;5057875;28;20079;-85
2021/04/29 07:06:20;;;;;;;9.73;2.95;;;12.50;99.90;;;;;;5058158;28;20045;-87
2021/04/29 07:08:47;;;;;;;3.50;2.50;;;12.50;99.90;;;;;;5059546;28;20047;-86
2021/04/29 07:11:14;;;;;;;2.78;2.58;;;12.60;99.90;;;;;;5068491;28;20040;-86
2021/04/29 07:13:40;;;;;;;3.45;2.20;;;12.90;99.90;;;;;;5067809;28;20040;-84
2021/04/29 07:16:07;;;;;;;3.40;2.58;;;13.30;99.90;;;;;;5065958;28;20040;-84
2021/04/29 07:18:33;;;;;;;3.92;2.33;;;13.70;99.90;;;;;;5064963;28;20052;-84
2021/04/29 07:21:03;;;;;;;6.82;2.22;;;14.00;99.90;;;;;;5064782;28;20076;-85
2021/04/29 07:23:30;;;;;;;7.18;2.53;;;13.90;99.90;;;;;;5065568;28;20072;-86
2021/04/29 07:25:57;;;;;;;2.35;2.13;;;13.90;99.90;;;;;;5040792;28;20056;-84
2021/04/29 07:28:24;;;;;;;2.20;2.00;;;13.80;99.90;;;;;;5057248;28;20044;-85
2021/04/29 07:30:51;;;;;;;2.60;2.40;;;13.70;99.90;;;;;;5056407;28;20040;-84
2021/04/29 07:33:17;;;;;;;3.70;2.50;;;13.50;99.90;;;;;;5056848;28;20097;-84
2021/04/29 07:35:44;;;;;;;2.60;2.40;;;13.30;99.90;;;;;;5058602;28;20049;-86
2021/04/29 07:38:11;;;;;;;3.80;2.88;;;13.40;99.90;;;;;;5057576;28;20045;-85
2021/04/29 07:40:38;;;;;;;18.45;3.92;;;13.40;99.90;;;;;;5056822;28;20492;-84
2021/04/29 07:43:04;;;;;;;3.13;2.47;;;13.60;99.90;;;;;;5056758;28;20083;-84
2021/04/29 07:45:32;;;;;;;3.78;3.13;;;13.90;99.90;;;;;;5057452;28;20114;-83
2021/04/29 07:47:59;;;;;;;4.20;2.85;;;13.80;99.90;;;;;;5070210;28;20048;-84
2021/04/29 07:50:27;;;;;;;3.40;2.67;;;13.80;99.90;;;;;;5075386;28;20056;-83
2021/04/29 07:52:56;;;;;;;3.00;2.70;;;14.00;99.90;;;;;;5059511;28;20044;-83
2021/04/29 07:55:23;;;;;;;3.75;3.00;;;14.10;99.90;;;;;;5075260;28;20052;-83
2021/04/29 07:57:49;;;;;;;3.60;3.30;;;14.10;99.90;;;;;;5075600;28;20044;-83
2021/04/29 08:00:16;;;;;;;4.55;3.22;;;14.20;99.90;;;;;;5074548;28;20436;-84
2021/04/29 08:02:43;;;;;;;5.72;3.85;;;14.70;99.90;;;;;;5074299;28;20087;-84
2021/04/29 08:05:11;;;;;;;3.92;3.63;;;14.90;99.90;;;;;;5078094;28;20412;-83
2021/04/29 08:07:39;;;;;;;4.53;4.10;;;15.00;99.90;;;;;;5077242;28;20059;-83
2021/04/29 08:10:07;;;;;;;5.97;3.88;;;15.00;99.90;;;;;;5078249;28;20055;-83
2021/04/29 08:12:34;;;;;;;4.40;4.10;;;14.90;99.90;;;;;;5078551;28;20055;-83
2021/04/29 08:15:00;;;;;;;4.75;3.58;;;14.80;99.90;;;;;;5078372;28;20115;-85
2021/04/29 08:17:30;;;;;;;4.32;3.97;;;15.00;99.90;;;;;;5077381;28;20590;-84
2021/04/29 08:19:57;;;;;;;4.20;3.90;;;15.20;99.90;;;;;;5077084;28;20045;-84
2021/04/29 08:22:25;;;;;;;3.78;3.38;;;15.50;99.90;;;;;;5075802;28;20507;-82
2021/04/29 08:24:53;;;;;;;4.22;3.60;;;16.60;99.90;;;;;;5078359;28;20048;-80
2021/04/29 08:27:19;;;;;;;5.82;3.63;;;18.40;99.90;;;;;;5081837;28;20053;-82
2021/04/29 08:29:46;;;;;;;3.85;3.35;;;19.70;99.90;;;;;;5080955;28;20388;-82
2021/04/29 08:32:12;;;;;;;3.67;3.38;;;21.20;99.90;;;;;;5080447;28;20044;-81
2021/04/29 08:34:39;;;;;;;3.55;3.25;;;21.50;97.30;;;;;;5081759;28;20055;-81
2021/04/29 08:37:05;;;;;;;8.30;3.30;;;21.90;92.90;;;;;;5080417;28;20041;-82
2021/04/29 08:39:33;;;;;;;4.72;3.42;;;22.10;88.20;;;;;;5080920;28;20070;-82
2021/04/29 08:41:59;;;;;;;5.65;3.17;;;22.20;84.30;;;;;;5080878;28;20102;-82
2021/04/29 08:44:27;;;;;;;6.05;4.93;;;21.40;87.70;;;;;;5080235;28;20078;-82
2021/04/29 08:46:54;;;;;;;10.80;6.80;;;21.00;90.40;;;;;;5081059;28;20071;-82
2021/04/29 08:49:26;;;;;;;3.65;3.33;;;20.30;91.60;;;;;;5082146;28;20056;-84
2021/04/29 08:51:53;;;;;;;3.78;3.45;;;19.50;93.80;;;;;;5084391;28;20511;-83
2021/04/29 08:54:20;;;;;;;4.60;3.22;;;19.20;95.20;;;;;;5082999;28;20408;-82
2021/04/29 08:56:46;;;;;;;4.88;2.90;;;19.50;95.70;;;;;;5081897;28;20080;-82
2021/04/29 08:59:13;;;;;;;3.08;2.30;;;20.60;93.40;;;;;;5080077;28;20459;-83
2021/04/29 09:01:44;;;;;;;11.43;2.63;;;21.90;87.70;;;;;;5081332;28;20044;-81
2021/04/29 09:04:17;;;;;;;12.90;3.05;;;21.70;81.60;;;;;;5079972;28;20052;-81
2021/04/29 09:06:45;;;;;;;2.63;2.28;;;21.10;86.80;;;;;;5079446;28;20048;-81
2021/04/29 09:09:17;;;;;;;5.90;2.22;;;21.70;84.90;;;;;;5078827;28;20095;-81
2021/04/29 09:11:48;;;;;;;7.22;2.40;;;22.20;83.30;;;;;;5079921;28;20137;-80
2021/04/29 09:14:34;;;;;;;2.78;1.88;;;22.40;77.10;;;;;;5079410;28;20428;-81
2021/04/29 09:17:01;;;;;;;2.38;2.17;;;22.60;73.20;;;;;;5079427;28;20050;-82
2021/04/29 09:19:38;;;;;;;3.97;2.20;;;23.20;71.50;;;;;;5080158;28;20040;-81
2021/04/29 09:22:21;;;;;;;2.30;2.15;;;23.90;70.00;;;;;;5078783;28;20059;-83
2021/04/29 09:24:48;;;;;;;3.45;2.42;;;23.50;69.20;;;;;;5078522;28;20055;-81
2021/04/29 09:27:17;;;;;;;3.53;2.13;;;23.10;70.90;;;;;;5080444;28;20078;-81
2021/04/29 09:29:58;;;;;;;2.67;2.20;;;23.10;71.20;;;;;;5079735;28;20526;-82
2021/04/29 09:32:30;;;;;;;25.63;4.10;;;22.60;69.50;;;;;;5082199;28;20052;-83
2021/04/29 09:34:58;;;;;;;11.35;3.22;;;22.60;70.30;;;;;;5081482;28;20131;-81
2021/04/29 09:37:31;;;;;;;5.43;1.95;;;22.70;72.40;;;;;;5077633;28;20526;-81
2021/04/29 09:40:03;;;;;;;7.63;2.75;;;22.90;72.60;;;;;;5074584;28;20106;-80
2021/04/29 09:42:37;;;;;;;2.58;1.95;;;23.80;69.20;;;;;;5077914;28;20090;-81
2021/04/29 09:45:15;;;;;;;3.67;2.00;;;24.00;64.60;;;;;;5074857;28;20131;-81
2021/04/29 09:47:53;;;;;;;2.22;1.92;;;23.80;65.20;;;;;;5074265;28;20105;-80
2021/04/29 09:50:24;;;;;;;3.58;2.10;;;23.70;64.80;;;;;;5075261;28;20087;-81
2021/04/29 09:53:02;;;;;;;4.50;2.42;;;23.80;65.00;;;;;;5075712;28;20485;-81
2021/04/29 09:55:30;;;;;;;3.55;2.08;;;23.70;63.10;;;;;;5080524;28;20045;-81
2021/04/29 09:58:15;;;;;;;4.38;2.17;;;22.80;64.90;;;;;;5078210;28;20066;-83
2021/04/29 10:00:49;;;;;;;4.32;1.80;;;23.40;64.10;;;;;;5078085;28;20127;-83
2021/04/29 10:03:17;;;;;;;5.60;2.30;;;24.10;61.40;;;;;;5079606;28;20041;-81
2021/04/29 10:05:45;;;;;;;12.82;2.92;;;23.80;59.20;;;;;;5077752;28;20098;-81
2021/04/29 10:08:15;;;;;;;7.18;2.30;;;22.60;61.40;;;;;;5079076;28;20420;-81
2021/04/29 10:10:47;;;;;;;9.18;2.15;;;21.20;65.40;;;;;;5077766;28;20060;-81
2021/04/29 10:13:14;;;;;;;3.40;3.10;;;19.90;70.10;;;;;;5079973;28;20080;-82
2021/04/29 10:15:43;;;;;;;4.03;3.08;;;18.40;78.70;;;;;;5078066;28;20048;-82
2021/04/29 10:18:11;;;;;;;3.05;2.70;;;17.40;91.10;;;;;;5078097;28;20075;-82
2021/04/29 10:20:45;;;;;;;4.03;3.00;;;17.00;95.70;;;;;;5078217;28;20114;-83
2021/04/29 10:23:17;;;;;;;7.07;3.58;;;16.70;99.90;;;;;;5077695;28;20128;-83
2021/04/29 10:25:55;;;;;;;5.85;3.67;;;16.50;99.90;;;;;;5078076;28;20469;-83
2021/04/29 10:28:33;;;;;;;5.95;3.42;;;16.60;99.90;;;;;;5077207;28;20044;-83
2021/04/29 10:31:13;;;;;;;4.05;3.65;;;16.70;99.90;;;;;;5079274;28;20055;-82
2021/04/29 10:33:46;;;;;;;6.53;3.53;;;17.00;99.90;;;;;;5078618;28;20075;-83
2021/04/29 10:36:13;;;;;;;3.10;2.83;;;19.00;99.90;;;;;;5079969;28;20439;-84
2021/04/29 10:38:39;;;;;;;8.23;3.33;;;20.80;96.40;;;;;;5075021;28;20075;-82
2021/04/29 10:41:23;;;;;;;5.50;2.80;;;22.10;94.20;;;;;;5075756;28;20127;-82
2021/04/29 10:43:51;;;;;;;6.03;2.90;;;24.00;81.30;;;;;;5077485;28;20082;-81
2021/04/29 10:46:33;;;;;;;3.38;2.83;;;25.30;73.70;;;;;;5078299;28;20079;-82
2021/04/29 10:49:01;;;;;;;3.50;3.05;;;25.10;68.80;;;;;;5067684;28;20080;-83
2021/04/29 10:51:36;;;;;;;3.35;2.85;;;24.30;67.10;;;;;;5067110;28;20137;-82
2021/04/29 10:54:13;;;;;;;6.22;3.20;;;23.50;67.90;;;;;;5068082;28;20036;-83
2021/04/29 10:56:41;;;;;;;5.40;3.25;;;22.10;70.60;;;;;;5072021;28;20052;-82
2021/04/29 10:59:13;;;;;;;3.33;2.95;;;20.90;77.50;;;;;;5057668;28;20147;-81
2021/04/29 11:01:46;;;;;;;5.30;3.10;;;20.10;78.30;;;;;;5056864;28;20081;-83
2021/04/29 11:04:18;;;;;;;4.28;3.30;;;19.20;82.30;;;;;;5057186;28;20049;-81
2021/04/29 11:06:45;;;;;;;5.03;3.20;;;18.50;89.20;;;;;;5059017;28;20053;-81
2021/04/29 11:09:19;;;;;;;5.93;3.00;;;17.70;92.30;;;;;;5057533;28;20072;-83
2021/04/29 11:11:46;;;;;;;4.32;3.47;;;17.10;99.90;;;;;;5056907;28;20041;-83
2021/04/29 11:14:17;;;;;;;5.18;3.67;;;16.40;99.90;;;;;;5058740;28;20099;-84
2021/04/29 11:16:49;;;;;;;4.25;3.88;;;15.70;99.90;;;;;;5056386;28;20495;-84
2021/04/29 11:19:36;;;;;;;5.57;3.90;;;15.20;99.90;;;;;;5054682;28;20049;-85
2021/04/29 11:22:14;;;;;;;6.63;5.18;;;15.80;99.90;;;;;;5056491;28;20052;-85
2021/04/29 11:24:47;;;;;;;16.10;8.65;;;16.50;99.90;;;;;;5056760;28;20099;-85
2021/04/29 11:27:23;;;;;;;16.05;10.70;;;16.90;99.90;;;;;;5053648;28;20126;-84
2021/04/29 11:29:54;;;;;;;7.93;6.97;;;18.40;99.90;;;;;;5051980;28;20053;-82
2021/04/29 11:32:21;;;;;;;3.65;3.38;;;19.70;99.90;;;;;;5052488;28;20416;-83
2021/04/29 11:34:49;;;;;;;3.72;3.35;;;18.80;99.90;;;;;;5052614;28;20132;-84
2021/04/29 11:37:16;;;;;;;4.57;3.17;;;18.10;99.90;;;;;;5052213;28;20564;-82
2021/04/29 11:39:43;;;;;;;5.70;3.35;;;17.60;99.90;;;;;;5052020;28;20102;-83
2021/04/29 11:42:22;;;;;;;4.70;3.50;;;16.90;99.90;;;;;;5053142;28;20471;-85
2021/04/29 11:44:49;;;;;;;4.60;3.50;;;16.30;99.90;;;;;;5058461;28;20080;-85
2021/04/29 11:47:15;;;;;;;4.55;3.33;;;16.00;99.90;;;;;;5058338;28;20072;-85
2021/04/29 11:49:42;;;;;;;5.70;3.13;;;16.90;99.90;;;;;;5058568;28;20080;-85
2021/04/29 11:52:08;;;;;;;4.38;2.10;;;18.10;99.90;;;;;;5057940;28;20053;-83
2021/04/29 11:54:45;;;;;;;2.35;2.15;;;19.40;99.90;;;;;;5064161;28;20080;-84
2021/04/29 11:57:14;;;;;;;2.03;1.83;;;20.20;99.90;;;;;;5064193;28;20076;-85
2021/04/29 11:59:40;;;;;;;3.47;1.95;;;21.70;99.90;;;;;;5066446;28;20080;-83
2021/04/29 12:02:07;;;;;;;2.00;1.80;;;22.40;99.90;;;;;;5075692;28;20045;-81
2021/04/29 12:04:33;;;;;;;3.33;1.80;;;23.20;83.80;;;;;;5079119;28;20052;-80
2021/04/29 12:07:02;;;;;;;2.58;1.45;;;23.00;87.80;;;;;;5078228;28;20049;-80
2021/04/29 12:09:29;;;;;;;3.90;1.45;;;21.70;78.70;;;;;;5077690;28;20070;-81
2021/04/29 12:12:20;;;;;;;2.47;1.40;;;21.00;81.90;;;;;;5078293;28;20044;-79
2021/04/29 12:14:54;;;;;;;7.30;2.63;;;20.80;80.40;;;;;;5078018;28;20049;-81
2021/04/29 12:17:22;;;;;;;3.28;1.60;;;19.00;79.90;;;;;;5078545;28;20401;-80
2021/04/29 12:19:52;;;;;;;2.83;1.73;;;19.00;80.50;;;;;;5078533;28;20500;-78
2021/04/29 12:22:23;;;;;;;3.42;1.52;;;18.80;81.60;;;;;;5078213;28;20415;-80
2021/04/29 12:24:50;;;;;;;2.47;1.77;;;18.50;82.10;;;;;;5077790;28;20048;-79
2021/04/29 12:27:21;;;;;;;4.18;1.23;;;18.60;78.30;;;;;;5077129;28;20056;-79
2021/04/29 12:30:01;;;;;;;2.33;1.42;;;18.50;79.80;;;;;;5077541;28;20057;-78
2021/04/29 12:32:39;;;;;;;11.32;2.35;;;18.20;80.60;;;;;;5076625;28;20080;-80
2021/04/29 12:35:07;;;;;;;1.50;1.40;;;18.30;84.10;;;;;;5076852;28;20474;-79
2021/04/29 12:37:33;;;;;;;6.15;1.40;;;18.30;81.90;;;;;;5077327;28;20059;-78
2021/04/29 12:39:59;;;;;;;3.90;1.90;;;18.20;81.70;;;;;;5076416;28;20569;-79
2021/04/29 12:42:26;;;;;;;13.13;2.78;;;17.80;80.70;;;;;;5076504;28;20056;-77
2021/04/29 12:45:01;;;;;;;5.28;1.70;;;17.20;79.40;;;;;;5077415;28;20052;-79
2021/04/29 12:47:33;;;;;;;10.93;2.42;;;16.70;83.10;;;;;;5076311;28;20052;-78
2021/04/29 12:50:05;;;;;;;6.47;1.92;;;16.50;84.30;;;;;;5075995;28;20466;-78
2021/04/29 12:52:32;;;;;;;5.50;2.00;;;16.20;90.50;;;;;;5075508;28;20045;-79
2021/04/29 12:55:10;;;;;;;6.50;1.70;;;15.90;99.90;;;;;;5076298;28;20484;-80
2021/04/29 12:57:36;;;;;;;3.20;1.63;;;15.20;99.90;;;;;;5077725;28;20097;-81
2021/04/29 13:00:03;;;;;;;2.42;1.80;;;14.30;99.90;;;;;;5076715;28;20082;-82
2021/04/29 13:02:30;;;;;;;5.85;3.63;;;13.30;99.90;;;;;;5079542;28;20075;-87